Time;durP1;ratioP1;P1;durP2;ratioP2;P2;SDS_P1;SDS_P2;PMS_P1;PMS_P2;Temp;Humidity;BMP_temperature;BMP_pressure;BME280_temperature;BME280_humidity;BME280_pressure;Samples;Min_cycle;Max_cycle;Signal;HPM_P1;HPM_P2
2022/06/17 00:00:48;;;;;;;7.18;4.65;;;;;;;14.27;71.14;96638.88;2064540;28;20042;-58
2022/06/17 00:01:49;;;;;;;6.10;4.53;;;;;;;14.23;71.28;96642.59;2072818;28;20041;-57
2022/06/17 00:02:50;;;;;;;7.93;4.82;;;;;;;14.16;71.05;96635.97;2064563;28;20416;-58
2022/06/17 00:03:52;;;;;;;8.90;4.72;;;;;;;14.11;71.22;96631.84;2072825;28;20057;-58
2022/06/17 00:04:53;;;;;;;5.95;4.20;;;;;;;14.09;71.17;96633.69;2056847;28;20053;-59
2022/06/17 00:05:55;;;;;;;7.45;4.65;;;;;;;14.04;71.76;96625.25;2064177;28;20044;-60
2022/06/17 00:07:01;;;;;;;7.53;4.40;;;;;;;14.08;72.00;96636.38;2064597;28;20054;-60
2022/06/17 00:08:03;;;;;;;5.75;4.35;;;;;;;14.04;71.70;96634.84;2072428;28;20053;-60
2022/06/17 00:09:04;;;;;;;7.00;4.63;;;;;;;14.04;71.69;96632.25;2080773;28;20057;-59
2022/06/17 00:10:17;;;;;;;9.27;4.82;;;;;;;14.04;71.76;96637.47;2072440;28;20053;-59
2022/06/17 00:11:23;;;;;;;7.45;4.80;;;;;;;14.02;72.40;96642.75;2050651;28;20050;-59
2022/06/17 00:12:25;;;;;;;9.00;4.78;;;;;;;13.99;73.16;96642.91;2058452;28;20072;-60
2022/06/17 00:13:26;;;;;;;6.28;4.85;;;;;;;13.97;74.26;96644.75;2073294;28;20060;-60
2022/06/17 00:14:31;;;;;;;6.43;4.78;;;;;;;13.93;74.55;96642.41;2073156;28;20053;-60
2022/06/17 00:16:33;;;;;;;9.18;5.03;;;;;;;13.90;74.83;96646.84;2056530;28;20590;-60
2022/06/17 00:17:34;;;;;;;8.98;5.22;;;;;;;13.89;74.84;96654.72;2064220;28;20061;-59
2022/06/17 00:18:36;;;;;;;7.70;5.22;;;;;;;13.88;74.92;96655.66;2056782;28;20043;-57
2022/06/17 00:19:37;;;;;;;7.28;5.25;;;;;;;13.86;75.06;96653.13;2064375;28;20451;-58
2022/06/17 00:20:38;;;;;;;6.65;5.53;;;;;;;13.86;75.17;96650.50;2072052;28;20045;-59
2022/06/17 00:21:42;;;;;;;7.63;5.32;;;;;;;13.81;74.94;96655.13;2063998;28;20053;-60
2022/06/17 00:22:44;;;;;;;7.05;4.82;;;;;;;13.74;74.78;96656.34;2056910;28;20054;-59
2022/06/17 00:23:45;;;;;;;7.78;5.30;;;;;;;13.73;74.87;96652.03;2056688;28;20437;-59
2022/06/17 00:24:47;;;;;;;6.90;5.38;;;;;;;13.71;75.78;96653.88;2064464;28;20042;-59
2022/06/17 00:25:48;;;;;;;8.40;5.45;;;;;;;13.63;74.96;96658.63;2048715;28;20054;-60
2022/06/17 00:26:49;;;;;;;7.78;5.45;;;;;;;13.62;74.61;96667.38;2048551;28;20098;-61
2022/06/17 00:27:51;;;;;;;8.48;5.43;;;;;;;13.59;74.48;96660.53;2072334;28;20045;-59
2022/06/17 00:28:52;;;;;;;6.97;5.20;;;;;;;13.60;74.44;96658.78;2079135;28;20045;-60
2022/06/17 00:29:53;;;;;;;7.45;4.97;;;;;;;13.60;75.33;96666.59;2072237;28;20499;-60
2022/06/17 00:30:55;;;;;;;7.85;5.43;;;;;;;13.60;75.38;96669.22;2063999;28;20057;-59
2022/06/17 00:31:57;;;;;;;7.35;5.30;;;;;;;13.66;75.66;96674.16;2064573;28;20053;-59
2022/06/17 00:33:00;;;;;;;8.80;5.88;;;;;;;13.69;75.93;96668.78;2072306;28;20053;-59
2022/06/17 00:34:02;;;;;;;8.02;5.47;;;;;;;13.65;75.80;96677.66;2072385;28;20438;-60
2022/06/17 00:35:03;;;;;;;8.63;5.90;;;;;;;13.61;76.45;96674.38;2072253;28;20053;-59
2022/06/17 00:36:06;;;;;;;9.52;5.53;;;;;;;13.59;75.65;96675.38;2072443;28;20041;-60
2022/06/17 00:37:09;;;;;;;9.85;5.50;;;;;;;13.65;74.93;96670.69;2064490;28;20054;-59
2022/06/17 00:38:15;;;;;;;5.88;5.22;;;;;;;13.69;74.69;96676.63;2055836;28;20049;-59
2022/06/17 00:39:19;;;;;;;7.40;4.57;;;;;;;13.74;73.19;96664.19;2058256;28;20046;-59
2022/06/17 00:40:22;;;;;;;10.15;5.55;;;;;;;13.73;73.28;96665.09;2080531;28;20223;-60
2022/06/17 00:41:33;;;;;;;8.00;5.10;;;;;;;13.73;73.05;96661.63;2080385;28;20053;-59
2022/06/17 00:42:35;;;;;;;6.15;4.95;;;;;;;13.72;73.28;96660.81;2063939;28;20053;-60
2022/06/17 00:43:36;;;;;;;5.70;4.70;;;;;;;13.72;73.02;96670.41;2049127;28;20424;-58
2022/06/17 00:44:42;;;;;;;7.38;5.07;;;;;;;13.71;72.96;96661.69;2056480;28;20131;-57
2022/06/17 00:45:48;;;;;;;8.02;4.60;;;;;;;13.70;72.61;96669.63;2056837;28;20500;-60
2022/06/17 00:46:56;;;;;;;8.02;4.90;;;;;;;13.68;72.86;96667.06;2056973;28;20499;-59
2022/06/17 00:48:02;;;;;;;6.47;4.50;;;;;;;13.64;73.18;96662.94;2058975;28;20054;-61
2022/06/17 00:49:20;;;;;;;6.40;4.38;;;;;;;13.66;72.97;96656.72;2065257;28;20042;-59
2022/06/17 00:50:30;;;;;;;7.32;4.95;;;;;;;13.61;73.00;96660.50;2080594;28;20041;-60
2022/06/17 00:51:38;;;;;;;8.10;4.88;;;;;;;13.57;73.23;96661.53;2080877;28;20045;-60
2022/06/17 00:52:44;;;;;;;9.70;4.93;;;;;;;13.54;73.69;96664.31;2073193;28;20046;-59
2022/06/17 00:53:50;;;;;;;6.53;4.90;;;;;;;13.52;74.12;96660.91;2064719;28;20047;-60
2022/06/17 00:54:55;;;;;;;7.22;5.32;;;;;;;13.45;75.00;96663.00;2073710;28;20515;-58
2022/06/17 00:56:03;;;;;;;8.18;5.28;;;;;;;13.44;75.84;96656.94;2071709;28;20048;-60
2022/06/17 00:57:27;;;;;;;8.23;4.82;;;;;;;13.43;77.01;96659.59;2057659;28;20054;-60
2022/06/17 00:58:30;;;;;;;6.88;5.28;;;;;;;13.46;77.33;96664.66;2075371;28;20037;-60
2022/06/17 00:59:32;;;;;;;8.70;5.22;;;;;;;13.51;76.80;96661.84;2071574;28;20050;-59
2022/06/17 01:00:34;;;;;;;6.15;5.10;;;;;;;13.53;76.69;96670.44;2056501;28;20039;-59
2022/06/17 01:02:03;;;;;;;6.65;4.75;;;;;;;13.50;76.57;96655.78;2056003;28;20054;-59
2022/06/17 01:03:12;;;;;;;8.73;5.13;;;;;;;13.52;75.98;96663.53;2068663;28;20046;-59
2022/06/17 01:04:19;;;;;;;8.32;4.88;;;;;;;13.53;75.88;96668.69;2066176;28;20038;-60
2022/06/17 01:05:23;;;;;;;6.20;5.00;;;;;;;13.56;76.08;96670.31;2080206;28;20056;-60
2022/06/17 01:06:30;;;;;;;6.82;4.88;;;;;;;13.54;74.48;96672.97;2071652;28;20417;-59
2022/06/17 01:07:36;;;;;;;8.80;5.53;;;;;;;13.52;74.95;96672.19;2065381;28;20057;-60
2022/06/17 01:10:09;;;;;;;6.60;5.03;;;;;;;13.58;74.99;96673.66;2068090;28;20052;-59
2022/06/17 01:11:11;;;;;;;8.60;4.68;;;;;;;13.59;74.06;96681.44;2066961;28;20041;-59
2022/06/17 01:12:13;;;;;;;5.35;4.60;;;;;;;13.60;75.70;96671.81;2040369;29;20123;-59
2022/06/17 01:13:15;;;;;;;7.13;4.82;;;;;;;13.74;74.16;96679.84;2048618;28;20045;-59
2022/06/17 01:14:16;;;;;;;7.10;5.13;;;;;;;13.66;74.38;96676.78;2064299;28;20046;-59
2022/06/17 01:15:20;;;;;;;7.57;4.65;;;;;;;13.68;74.09;96683.59;2063893;28;20050;-58
2022/06/17 01:16:29;;;;;;;7.07;4.78;;;;;;;13.66;73.52;96682.84;2070869;28;20407;-59
2022/06/17 01:17:37;;;;;;;7.97;4.60;;;;;;;13.67;73.42;96689.72;2057088;28;20046;-56
2022/06/17 01:18:41;;;;;;;6.38;4.50;;;;;;;13.70;72.67;96693.94;2050640;28;20046;-60
2022/06/17 01:19:46;;;;;;;7.63;4.32;;;;;;;13.75;72.45;96698.97;2048611;28;20050;-59
2022/06/17 01:21:00;;;;;;;5.88;4.30;;;;;;;13.73;71.44;96692.97;2053751;28;20051;-59
2022/06/17 01:22:28;;;;;;;6.05;3.90;;;;;;;13.96;70.18;96694.47;2065689;28;20058;-59
2022/06/17 01:23:31;;;;;;;8.68;4.25;;;;;;;13.95;70.75;96688.38;2063852;28;20060;-59
2022/06/17 01:24:32;;;;;;;6.35;4.00;;;;;;;14.27;67.25;96684.16;2051536;28;20447;-59
2022/06/17 01:25:36;;;;;;;7.10;3.97;;;;;;;14.31;67.34;96682.22;2056053;28;20069;-59
2022/06/17 01:26:37;;;;;;;7.32;3.88;;;;;;;14.46;66.72;96683.19;2064253;28;20034;-59
2022/06/17 01:27:43;;;;;;;5.60;3.60;;;;;;;14.38;64.47;96677.50;2056182;28;20054;-59
2022/06/17 01:28:44;;;;;;;8.30;3.95;;;;;;;14.33;65.26;96667.31;2049153;28;20047;-59
2022/06/17 01:29:45;;;;;;;7.20;3.80;;;;;;;14.26;64.04;96677.22;2063381;28;20038;-59
2022/06/17 01:30:51;;;;;;;6.25;4.05;;;;;;;14.12;67.23;96677.94;2064483;28;20038;-59
2022/06/17 01:31:52;;;;;;;6.40;3.85;;;;;;;13.97;68.10;96683.91;2065464;28;20046;-59
2022/06/17 01:33:00;;;;;;;9.77;3.25;;;;;;;13.88;67.47;96684.38;2080217;28;20041;-59
2022/06/17 01:34:02;;;;;;;5.88;3.35;;;;;;;13.84;67.45;96677.63;2072901;28;20053;-59
2022/06/17 01:35:04;;;;;;;6.65;3.72;;;;;;;13.86;66.81;96681.84;2072522;28;20049;-59
2022/06/17 01:36:12;;;;;;;6.53;3.83;;;;;;;13.85;66.60;96679.31;2071608;28;20049;-58
2022/06/17 01:37:13;;;;;;;5.97;3.50;;;;;;;13.81;66.95;96681.22;2065074;28;20038;-60
2022/06/17 01:38:14;;;;;;;5.00;3.60;;;;;;;13.78;66.57;96685.75;2063830;28;20050;-59
2022/06/17 01:39:17;;;;;;;6.90;3.53;;;;;;;13.75;66.91;96681.53;2056289;28;20065;-59
2022/06/17 01:40:18;;;;;;;6.75;3.13;;;;;;;13.74;67.17;96690.28;2049430;28;20047;-59
2022/06/17 01:41:23;;;;;;;6.63;3.53;;;;;;;13.66;67.56;96688.03;2065703;28;20057;-59
2022/06/17 01:42:24;;;;;;;4.65;3.47;;;;;;;13.58;67.80;96690.19;2058065;28;20051;-59
2022/06/17 01:43:49;;;;;;;5.93;3.75;;;;;;;13.64;67.74;96694.25;2057685;28;20057;-61
2022/06/17 01:44:52;;;;;;;4.97;3.60;;;;;;;13.60;68.02;96688.31;2072073;28;20506;-59
2022/06/17 01:46:02;;;;;;;5.85;3.42;;;;;;;13.62;68.44;96688.25;2073433;28;20069;-59
2022/06/17 01:47:06;;;;;;;5.68;4.15;;;;;;;13.60;68.31;96682.25;2052734;28;20050;-60
2022/06/17 01:48:07;;;;;;;5.00;3.80;;;;;;;13.55;68.64;96676.41;2058368;28;20057;-60
2022/06/17 01:49:15;;;;;;;6.97;3.67;;;;;;;13.53;67.93;96681.72;2057218;28;20039;-59
2022/06/17 01:50:19;;;;;;;5.35;3.65;;;;;;;13.52;68.04;96679.19;2059642;28;20575;-59
2022/06/17 01:51:22;;;;;;;7.90;3.63;;;;;;;13.53;68.10;96673.06;2074103;28;20045;-60
2022/06/17 01:52:33;;;;;;;4.68;3.40;;;;;;;13.55;68.02;96669.47;2057789;28;20054;-59
2022/06/17 01:53:38;;;;;;;5.82;3.60;;;;;;;13.64;67.38;96665.56;2068959;28;20053;-58
2022/06/17 01:54:44;;;;;;;6.07;3.97;;;;;;;13.57;68.13;96667.59;2065801;28;20122;-60
2022/06/17 01:55:49;;;;;;;6.50;3.80;;;;;;;13.53;67.93;96671.28;2065498;28;20057;-60
2022/06/17 01:56:52;;;;;;;4.68;3.42;;;;;;;13.51;68.21;96664.47;2073329;28;20049;-59
2022/06/17 01:57:57;;;;;;;7.40;3.65;;;;;;;13.49;68.32;96667.13;2065565;28;20050;-60
2022/06/17 01:59:05;;;;;;;4.88;3.35;;;;;;;13.44;68.65;96664.75;2067154;28;20054;-59
2022/06/17 02:00:18;;;;;;;4.75;3.60;;;;;;;13.44;70.16;96667.38;2066468;28;20057;-60
2022/06/17 02:01:22;;;;;;;5.88;4.05;;;;;;;13.42;70.91;96665.75;2061955;28;20097;-60
2022/06/17 02:02:23;;;;;;;8.43;4.05;;;;;;;13.38;72.31;96657.22;2073832;28;20050;-59
2022/06/17 02:03:29;;;;;;;5.93;4.22;;;;;;;13.35;72.52;96659.97;2073331;28;20050;-60
2022/06/17 02:04:35;;;;;;;7.50;3.85;;;;;;;13.34;73.89;96660.03;2051959;28;20070;-60
2022/06/17 02:05:37;;;;;;;7.20;4.60;;;;;;;13.29;74.83;96657.66;2050610;28;20062;-58
2022/06/17 02:06:46;;;;;;;7.18;4.28;;;;;;;13.27;75.11;96664.69;2064878;28;20054;-59
2022/06/17 02:07:58;;;;;;;7.43;4.57;;;;;;;13.27;74.51;96667.31;2060050;28;20043;-59
2022/06/17 02:09:00;;;;;;;7.10;4.57;;;;;;;13.22;74.56;96662.28;2059331;28;20050;-59
2022/06/17 02:10:02;;;;;;;6.07;4.22;;;;;;;13.19;73.92;96664.19;2065899;28;20061;-59
2022/06/17 02:11:05;;;;;;;7.20;4.03;;;;;;;13.17;73.31;96666.84;2076176;28;20082;-59
2022/06/17 02:12:08;;;;;;;5.90;4.13;;;;;;;13.16;73.37;96661.72;2081720;28;20067;-60
2022/06/17 02:13:11;;;;;;;6.80;4.28;;;;;;;13.11;73.31;96661.09;2081594;28;20064;-60
2022/06/17 02:14:31;;;;;;;9.73;4.00;;;;;;;13.08;73.35;96664.69;2089326;28;20056;-60
2022/06/17 02:15:33;;;;;;;10.85;4.53;;;;;;;13.04;73.58;96668.34;2087037;28;20104;-60
2022/06/17 02:16:49;;;;;;;7.38;4.35;;;;;;;12.97;73.87;96656.53;2081009;28;20057;-59
2022/06/17 02:18:05;;;;;;;5.25;4.07;;;;;;;12.95;73.51;96651.38;2081711;28;20083;-61
2022/06/17 02:19:16;;;;;;;5.07;4.20;;;;;;;12.93;73.29;96645.38;2082378;28;20494;-59
2022/06/17 02:20:17;;;;;;;8.82;4.25;;;;;;;12.90;74.01;96649.91;2082274;28;20056;-60
2022/06/17 02:21:37;;;;;;;6.28;3.90;;;;;;;12.85;74.08;96651.88;2056988;28;20043;-60
2022/06/17 02:22:39;;;;;;;7.90;4.25;;;;;;;12.81;74.39;96643.34;2057070;28;20481;-59
2022/06/17 02:23:40;;;;;;;5.60;3.88;;;;;;;12.77;74.35;96647.00;2072763;28;20042;-59
2022/06/17 02:24:41;;;;;;;7.55;4.85;;;;;;;12.75;74.99;96641.88;2073683;28;20045;-59
2022/06/17 02:25:46;;;;;;;7.78;4.50;;;;;;;12.76;74.83;96643.56;2072764;28;20128;-60
2022/06/17 02:26:47;;;;;;;7.47;4.28;;;;;;;12.75;74.35;96643.59;2081294;28;20045;-59
2022/06/17 02:27:51;;;;;;;8.18;3.95;;;;;;;12.74;73.63;96636.72;2080873;28;20528;-60
2022/06/17 02:28:53;;;;;;;5.45;4.25;;;;;;;12.68;73.93;96645.66;2072847;28;20529;-60
2022/06/17 02:29:56;;;;;;;6.03;4.05;;;;;;;12.67;74.09;96643.09;2073561;28;20440;-60
2022/06/17 02:30:57;;;;;;;9.55;4.43;;;;;;;12.67;74.17;96638.78;2081249;28;20461;-60
2022/06/17 02:32:04;;;;;;;5.43;4.40;;;;;;;12.67;74.17;96637.91;2065139;28;20065;-60
2022/06/17 02:33:08;;;;;;;8.05;4.80;;;;;;;12.65;74.24;96650.19;2058226;28;20050;-60
2022/06/17 02:34:12;;;;;;;5.70;4.35;;;;;;;12.63;74.10;96641.56;2050083;28;20072;-61
2022/06/17 02:35:23;;;;;;;6.90;4.22;;;;;;;12.57;74.23;96638.31;2066424;28;20507;-60
2022/06/17 02:36:35;;;;;;;6.65;4.50;;;;;;;12.54;74.25;96635.03;2074756;28;20045;-59
2022/06/17 02:37:36;;;;;;;7.35;4.18;;;;;;;12.50;74.97;96638.66;2064806;28;20065;-59
2022/06/17 02:38:39;;;;;;;6.18;4.68;;;;;;;12.45;74.73;96640.63;2064462;28;20046;-60
2022/06/17 02:39:42;;;;;;;6.75;4.90;;;;;;;12.42;74.98;96641.59;2065511;28;20038;-59
2022/06/17 02:40:48;;;;;;;8.45;4.70;;;;;;;12.42;74.93;96644.22;2066308;28;20537;-60
2022/06/17 02:41:49;;;;;;;7.68;4.68;;;;;;;12.43;75.12;96642.44;2065391;28;20071;-60
2022/06/17 02:42:50;;;;;;;8.35;5.10;;;;;;;12.43;75.16;96639.84;2064823;28;20053;-60
2022/06/17 02:44:16;;;;;;;7.65;4.78;;;;;;;12.41;74.18;96636.50;2057262;28;20065;-60
2022/06/17 02:45:20;;;;;;;8.45;4.93;;;;;;;12.36;75.12;96634.06;2063867;28;20553;-61
2022/06/17 02:46:27;;;;;;;7.65;4.40;;;;;;;12.31;75.11;96634.28;2057871;28;20635;-59
2022/06/17 02:47:29;;;;;;;7.32;4.88;;;;;;;12.31;75.92;96638.63;2065676;28;20050;-60
2022/06/17 02:48:36;;;;;;;7.22;4.63;;;;;;;12.23;76.11;96623.34;2065367;28;20054;-60
2022/06/17 02:49:38;;;;;;;5.82;4.35;;;;;;;12.24;76.13;96634.59;2050336;28;20043;-60
2022/06/17 02:50:39;;;;;;;10.32;4.68;;;;;;;12.21;76.47;96637.34;2034471;29;20043;-60
2022/06/17 02:51:40;;;;;;;6.40;4.65;;;;;;;12.19;77.17;96644.38;2041341;28;20504;-60
2022/06/17 02:52:42;;;;;;;5.25;4.68;;;;;;;12.14;77.64;96637.63;2033955;28;20036;-60
2022/06/17 02:53:44;;;;;;;6.80;4.80;;;;;;;12.13;77.66;96635.06;2033679;28;20044;-59
2022/06/17 02:54:50;;;;;;;8.70;4.55;;;;;;;12.10;77.57;96633.44;2053534;28;20042;-58
2022/06/17 02:55:51;;;;;;;8.82;4.95;;;;;;;12.09;78.30;96631.75;2058360;28;20046;-59
2022/06/17 02:56:53;;;;;;;8.23;5.22;;;;;;;12.08;78.31;96635.28;2065362;28;20038;-60
2022/06/17 02:58:02;;;;;;;8.27;4.93;;;;;;;12.06;78.42;96642.31;2081029;28;20041;-60
2022/06/17 02:59:05;;;;;;;6.13;4.55;;;;;;;12.06;77.90;96642.31;2065516;28;20050;-60
2022/06/17 03:00:11;;;;;;;10.50;4.93;;;;;;;12.06;77.30;96644.91;2057882;28;20050;-60
2022/06/17 03:01:18;;;;;;;6.60;4.82;;;;;;;12.06;76.87;96652.72;2065807;28;20050;-60
2022/06/17 03:02:31;;;;;;;6.57;5.15;;;;;;;12.02;76.82;96643.34;2067497;28;20050;-60
2022/06/17 03:03:33;;;;;;;7.53;5.00;;;;;;;11.96;76.61;96648.81;2065696;28;20058;-60
2022/06/17 03:04:34;;;;;;;7.93;5.20;;;;;;;11.93;76.47;96646.34;2048896;29;20544;-59
2022/06/17 03:05:38;;;;;;;8.82;4.72;;;;;;;11.93;77.11;96648.94;2050148;28;20047;-58
2022/06/17 03:06:42;;;;;;;8.32;5.40;;;;;;;11.89;77.18;96649.97;2073654;28;20064;-62
2022/06/17 03:07:43;;;;;;;7.13;5.00;;;;;;;11.89;76.61;96649.97;2065015;28;20542;-59
2022/06/17 03:08:51;;;;;;;9.25;5.20;;;;;;;11.86;76.53;96650.09;2050694;28;20061;-59
2022/06/17 03:09:52;;;;;;;8.48;4.90;;;;;;;11.84;77.01;96651.88;2067005;28;20050;-60
2022/06/17 03:10:57;;;;;;;7.43;4.68;;;;;;;11.80;77.61;96643.38;2073119;28;20137;-59
2022/06/17 03:12:04;;;;;;;7.35;4.72;;;;;;;11.79;77.38;96653.84;2072939;28;20046;-59
2022/06/17 03:13:17;;;;;;;7.88;5.20;;;;;;;11.75;77.52;96649.69;2065337;28;20500;-61
2022/06/17 03:14:18;;;;;;;6.45;4.30;;;;;;;11.76;76.90;96643.56;2060042;28;20062;-60
2022/06/17 03:15:21;;;;;;;8.10;5.10;;;;;;;11.76;77.80;96646.16;2064899;28;20050;-59
2022/06/17 03:16:23;;;;;;;6.82;4.82;;;;;;;11.75;77.46;96644.47;2073260;28;20546;-60
2022/06/17 03:17:24;;;;;;;9.35;4.95;;;;;;;11.77;77.38;96647.88;2072734;28;20046;-59
2022/06/17 03:18:27;;;;;;;9.35;4.85;;;;;;;11.73;77.64;96646.28;2072833;28;20139;-59
2022/06/17 03:19:28;;;;;;;8.82;4.80;;;;;;;11.73;78.12;96647.13;2056599;28;20054;-59
2022/06/17 03:20:31;;;;;;;7.88;4.93;;;;;;;11.73;78.68;96644.53;2056771;28;20053;-60
2022/06/17 03:21:32;;;;;;;7.88;5.13;;;;;;;11.73;78.92;96654.09;2064973;28;20038;-60
2022/06/17 03:22:34;;;;;;;8.43;5.65;;;;;;;11.74;79.08;96661.00;2057002;28;20063;-59
2022/06/17 03:23:47;;;;;;;12.43;5.30;;;;;;;11.73;79.06;96660.13;2065249;28;20046;-58
2022/06/17 03:25:09;;;;;;;8.45;5.53;;;;;;;11.72;79.35;96668.03;2058465;28;20039;-59
2022/06/17 03:26:13;;;;;;;6.88;5.00;;;;;;;11.67;79.08;96661.25;2071005;28;20438;-59
2022/06/17 03:27:17;;;;;;;7.20;5.57;;;;;;;11.72;78.68;96655.84;2073177;28;20545;-59
2022/06/17 03:28:23;;;;;;;8.20;5.70;;;;;;;11.73;78.99;96667.09;2065264;28;20069;-59
2022/06/17 03:29:25;;;;;;;6.78;5.13;;;;;;;11.70;78.91;96666.31;2058268;28;20049;-59
2022/06/17 03:30:31;;;;;;;9.32;5.32;;;;;;;11.70;78.57;96674.13;2049773;28;20047;-60
2022/06/17 03:31:35;;;;;;;9.18;5.30;;;;;;;11.74;77.87;96677.47;2059694;28;20047;-59
2022/06/17 03:32:38;;;;;;;7.30;5.35;;;;;;;11.75;78.18;96673.94;2072878;28;20423;-57
2022/06/17 03:33:45;;;;;;;6.75;5.03;;;;;;;11.76;77.88;96685.19;2072742;28;20045;-60
2022/06/17 03:34:52;;;;;;;10.10;5.00;;;;;;;11.75;76.95;96686.94;2073428;28;20046;-59
2022/06/17 03:35:56;;;;;;;9.20;4.72;;;;;;;11.77;76.61;96687.75;2081901;28;20050;-59
2022/06/17 03:37:08;;;;;;;6.05;4.50;;;;;;;11.87;76.20;96675.25;2080499;28;20037;-59
2022/06/17 03:38:47;;;;;;;7.32;4.05;;;;;;;12.10;75.20;96688.13;2054570;28;20047;-61
2022/06/17 03:39:52;;;;;;;6.72;4.78;;;;;;;11.98;76.45;96685.19;2074485;28;20026;-61
2022/06/17 03:40:56;;;;;;;6.63;5.10;;;;;;;12.01;75.89;96691.13;2066402;28;20054;-60
2022/06/17 03:42:03;;;;;;;6.93;4.43;;;;;;;12.04;75.27;96690.13;2049966;28;20047;-60
2022/06/17 03:43:10;;;;;;;5.38;4.22;;;;;;;12.09;74.65;96691.63;2066925;28;20058;-60
2022/06/17 03:44:17;;;;;;;6.65;4.43;;;;;;;12.31;74.07;96695.94;2081184;28;20526;-59
2022/06/17 03:45:23;;;;;;;7.70;4.47;;;;;;;12.31;73.68;96698.53;2073640;28;20046;-59
2022/06/17 03:46:26;;;;;;;7.40;4.68;;;;;;;12.30;73.71;96696.84;2079588;28;20075;-59
2022/06/17 03:48:04;;;;;;;8.27;4.50;;;;;;;12.33;73.78;96696.72;2049811;28;20054;-59
2022/06/17 03:49:07;;;;;;;8.45;4.60;;;;;;;12.41;73.82;96688.56;2059092;28;20061;-59
2022/06/17 03:50:18;;;;;;;8.18;4.43;;;;;;;12.43;73.58;96692.81;2065857;28;20050;-61
2022/06/17 03:51:21;;;;;;;7.28;4.47;;;;;;;12.49;73.38;96695.13;2056599;28;20440;-60
2022/06/17 03:52:37;;;;;;;5.78;4.35;;;;;;;12.63;73.16;96704.94;2049889;28;20047;-60
2022/06/17 03:53:46;;;;;;;5.50;4.18;;;;;;;12.62;72.66;96705.03;2059593;28;20504;-60
2022/06/17 03:54:47;;;;;;;5.65;4.35;;;;;;;12.71;71.56;96702.00;2061901;28;20045;-60
2022/06/17 03:55:51;;;;;;;7.43;4.40;;;;;;;12.65;72.47;96703.13;2064789;28;20508;-61
2022/06/17 03:56:53;;;;;;;6.93;4.35;;;;;;;12.68;72.42;96702.16;2057774;28;20054;-60
2022/06/17 03:57:55;;;;;;;5.90;4.07;;;;;;;12.73;72.93;96710.63;2048851;28;20043;-60
2022/06/17 03:59:07;;;;;;;8.15;4.63;;;;;;;12.85;72.48;96704.00;2068838;28;20080;-60
2022/06/17 04:00:15;;;;;;;6.57;4.57;;;;;;;12.82;73.27;96704.13;2072281;28;20511;-60
2022/06/17 04:01:22;;;;;;;8.38;4.25;;;;;;;13.10;71.09;96706.34;2058325;28;20842;-60
2022/06/17 04:02:32;;;;;;;8.48;4.88;;;;;;;13.04;73.25;96699.63;2067694;28;20050;-60
2022/06/17 04:03:34;;;;;;;6.47;4.40;;;;;;;13.07;72.47;96699.50;2071825;28;20613;-61
2022/06/17 04:04:40;;;;;;;4.93;4.13;;;;;;;13.10;72.73;96698.53;2064816;28;20054;-56
2022/06/17 04:05:42;;;;;;;5.90;4.22;;;;;;;13.23;71.26;96700.50;2066063;28;20046;-60
2022/06/17 04:06:45;;;;;;;10.65;4.75;;;;;;;13.36;70.72;96695.56;2072724;28;20065;-61
2022/06/17 04:07:49;;;;;;;6.00;4.30;;;;;;;13.42;70.68;96697.91;2073446;28;20546;-60
2022/06/17 04:08:52;;;;;;;6.13;4.25;;;;;;;13.51;69.98;96696.59;2080634;28;20041;-62
2022/06/17 04:09:53;;;;;;;6.60;4.10;;;;;;;13.46;69.62;96701.19;2080008;28;20048;-61
2022/06/17 04:10:55;;;;;;;7.72;4.35;;;;;;;13.43;70.50;96691.75;2070387;28;20045;-60
2022/06/17 04:12:00;;;;;;;9.48;4.50;;;;;;;13.41;71.22;96692.75;2072156;28;20067;-60
2022/06/17 04:13:02;;;;;;;9.40;3.78;;;;;;;13.46;70.56;96686.38;2073301;28;20049;-60
2022/06/17 04:14:05;;;;;;;5.65;3.92;;;;;;;13.64;68.82;96689.88;2072625;28;20045;-60
2022/06/17 04:15:25;;;;;;;5.28;3.50;;;;;;;13.84;69.62;96690.66;2048479;28;20123;-61
2022/06/17 04:16:46;;;;;;;6.47;3.80;;;;;;;13.80;67.50;96695.19;2061001;28;20046;-60
2022/06/17 04:17:48;;;;;;;6.03;3.78;;;;;;;13.98;67.58;96688.25;2061130;28;20053;-61
2022/06/17 04:18:50;;;;;;;7.82;4.00;;;;;;;13.89;66.88;96692.13;2063906;28;20060;-60
2022/06/17 04:20:01;;;;;;;7.57;3.90;;;;;;;13.89;66.48;96692.13;2071875;28;20049;-60
2022/06/17 04:21:03;;;;;;;8.13;4.20;;;;;;;14.04;66.68;96692.31;2072157;28;20415;-60
2022/06/17 04:22:12;;;;;;;5.63;4.38;;;;;;;14.00;67.02;96691.59;2084196;22;20994;-64
2022/06/17 04:23:28;;;;;;;8.90;3.65;;;;;;;14.06;65.65;96690.44;2066950;28;20546;-65
2022/06/17 04:24:41;;;;;;;5.13;3.67;;;;;;;14.01;66.81;96692.47;2077297;28;20056;-62
2022/06/17 04:26:06;;;;;;;;;;;;;;;14.10;66.85;96697.22;2067495;28;20058;-61
2022/06/17 04:27:08;;;;;;;5.80;4.10;;;;;;;14.11;65.86;96693.66;2071693;28;19921;-61
2022/06/17 04:29:23;;;;;;;9.57;3.78;;;;;;;14.28;64.79;96695.44;2065479;28;20050;-61
2022/06/17 04:30:31;;;;;;;6.18;3.75;;;;;;;14.25;64.41;96698.22;2067111;28;20057;-62
2022/06/17 04:31:32;;;;;;;8.43;4.55;;;;;;;14.32;64.44;96699.59;2072361;28;20046;-66
2022/06/17 04:32:36;;;;;;;5.53;3.92;;;;;;;14.46;63.85;96704.09;2072391;28;20046;-60
2022/06/17 04:33:41;;;;;;;8.13;3.72;;;;;;;14.46;64.22;96693.66;2072755;28;20054;-60
2022/06/17 04:34:43;;;;;;;6.90;4.00;;;;;;;14.55;63.62;96703.66;2057092;28;20046;-64
2022/06/17 04:35:45;;;;;;;6.88;3.75;;;;;;;14.55;63.99;96701.06;2064433;28;20058;-61
2022/06/17 04:36:49;;;;;;;7.63;3.55;;;;;;;14.58;63.22;96700.06;2072246;28;20045;-61
2022/06/17 04:37:52;;;;;;;7.78;4.05;;;;;;;14.64;63.14;96703.19;2049798;28;20043;-61
2022/06/17 04:38:59;;;;;;;5.43;3.80;;;;;;;14.69;63.46;96705.56;2057188;28;20046;-62
2022/06/17 04:40:24;;;;;;;7.30;3.60;;;;;;;14.82;61.92;96711.00;2064058;28;20496;-61
2022/06/17 04:41:40;;;;;;;6.93;3.97;;;;;;;14.97;61.87;96712.81;2070750;28;20041;-61
2022/06/17 04:42:48;;;;;;;8.05;3.78;;;;;;;14.94;62.66;96710.34;2075826;28;20511;-63
2022/06/17 04:43:53;;;;;;;7.93;4.00;;;;;;;14.92;62.09;96715.66;2056141;28;20055;-61
2022/06/17 04:44:56;;;;;;;5.65;3.97;;;;;;;14.94;61.53;96719.03;2056756;28;20043;-62
2022/06/17 04:46:05;;;;;;;5.50;3.70;;;;;;;14.86;62.04;96720.34;2056481;28;20439;-63
2022/06/17 04:47:09;;;;;;;6.78;3.88;;;;;;;14.86;61.36;96717.75;2066090;28;20050;-61
2022/06/17 04:48:17;;;;;;;9.00;3.97;;;;;;;14.97;60.60;96721.50;2072232;28;20053;-61
2022/06/17 04:49:24;;;;;;;7.43;3.63;;;;;;;15.05;61.87;96721.09;2064954;28;20046;-61
2022/06/17 04:50:26;;;;;;;7.55;3.95;;;;;;;15.06;61.26;96727.16;2056807;28;20492;-60
2022/06/17 04:51:28;;;;;;;4.25;3.30;;;;;;;15.26;60.91;96726.06;2055864;28;20098;-61
2022/06/17 04:52:34;;;;;;;8.27;3.78;;;;;;;15.33;59.06;96728.28;2048653;28;20047;-61
2022/06/17 04:53:51;;;;;;;7.38;3.60;;;;;;;15.37;59.05;96724.56;2048657;28;20043;-60
2022/06/17 04:55:14;;;;;;;5.70;3.60;;;;;;;15.35;59.47;96730.81;2055047;28;20058;-61
2022/06/17 04:56:33;;;;;;;7.18;3.70;;;;;;;15.30;60.56;96728.44;2064676;28;20444;-65
2022/06/17 04:57:55;;;;;;;4.13;3.25;;;;;;;15.20;60.02;96737.72;2055698;28;20047;-61
2022/06/17 04:58:57;;;;;;;4.68;3.22;;;;;;;15.24;59.38;96734.03;2053077;28;20042;-63
2022/06/17 05:00:00;;;;;;;9.07;3.95;;;;;;;15.25;60.95;96729.63;2063989;28;20508;-62
2022/06/17 05:01:01;;;;;;;6.88;3.20;;;;;;;15.34;58.46;96731.72;2063809;28;20054;-61
2022/06/17 05:02:21;;;;;;;7.60;3.70;;;;;;;15.29;59.93;96731.13;2063864;28;20524;-62
2022/06/17 05:03:42;;;;;;;5.53;3.13;;;;;;;15.41;57.91;96730.47;2064114;28;20046;-67
2022/06/17 05:04:54;;;;;;;5.35;3.40;;;;;;;15.39;58.71;96740.19;2064486;28;20053;-62
2022/06/17 05:05:56;;;;;;;8.55;3.50;;;;;;;15.38;57.89;96736.72;2065293;28;20049;-65
2022/06/17 05:06:57;;;;;;;6.70;3.47;;;;;;;15.53;57.32;96740.28;2056227;28;20043;-62
2022/06/17 05:07:59;;;;;;;10.38;4.25;;;;;;;15.53;56.99;96735.06;2040420;29;20047;-65
2022/06/17 05:09:05;;;;;;;11.60;4.00;;;;;;;15.66;56.16;96749.16;2040952;29;20051;-63
2022/06/17 05:10:08;;;;;;;8.32;3.45;;;;;;;15.72;56.46;96749.78;2034547;29;20510;-64
2022/06/17 05:11:17;;;;;;;8.25;4.05;;;;;;;15.67;56.14;96752.59;2048791;28;20054;-61
2022/06/17 05:12:23;;;;;;;7.38;3.78;;;;;;;15.60;57.60;96749.47;2057108;28;20132;-61
2022/06/17 05:13:30;;;;;;;7.80;3.30;;;;;;;15.72;55.70;96755.84;2049105;28;20055;-64
2022/06/17 05:14:53;;;;;;;7.07;3.10;;;;;;;15.65;58.20;96749.22;2042085;28;20653;-61